Pauma (217, PY1) Station Data

Red Flag Warning: No
Fire Weather Zone: 250
SDGE Region: North East
Lat/Lon: 33.312/-117.003

Observations

Time Wind Speed/Gust Temp(F) RH Fuel Moist Fuel Temp(F) Dewpt(F) Tmax(F) Tmin(F) Accum Precip 10-min Precip SL Press(mb)
4/29 11:50pm 99 1 G 2 51° 56% - - 36° 85.8° 49.6° - - -
4/29 11:40pm 92 2 G 2 51° 57% - - 36° 85.8° 49.6° - - -
4/29 11:30pm 107 1 G 2 51° 57% - - 37° 85.8° 49.6° - - -
4/29 11:20pm 96 1 G 2 52° 53% - - 35° 85.8° 49.6° - - -
4/29 11:10pm 2 0 G 1 51° 50% - - 33° 85.8° 49.6° - - -
4/29 11:00pm 283 0 G 2 53° 48% - - 34° 85.8° 49.6° - - -
4/29 10:50pm 249 1 G 2 53° 48% - - 34° 85.8° 49.6° - - -
4/29 10:40pm 17 2 G 3 54° 49% - - 35° 85.8° 49.6° - - -
4/29 10:30pm 99 2 G 3 55° 46% - - 34° 85.8° 49.6° - - -
4/29 10:20pm 85 2 G 4 55° 42% - - 32° 85.8° 49.6° - - -
4/29 10:10pm 279 2 G 4 56° 41% - - 32° 85.8° 49.6° - - -
4/29 10:00pm 200 1 G 4 56° 44% - - 34° 85.8° 49.6° - - -
4/29 9:50pm 99 1 G 2 56° 42% - - 34° 85.8° 49.6° - - -
4/29 9:40pm 128 1 G 3 57° 40% - - 33° 85.8° 49.6° - - -
4/29 9:30pm 359 2 G 5 57° 37% - - 32° 85.8° 49.6° - - -
4/29 9:20pm 257 1 G 5 58° 39% - - 33° 85.8° 49.6° - - -
4/29 9:10pm 144 1 G 2 58° 39% - - 33° 85.8° 49.6° - - -
4/29 9:00pm 193 1 G 3 59° 38% - - 33° 85.8° 49.6° - - -
4/29 8:50pm 103 1 G 3 60° 37% - - 33° 85.8° 49.6° - - -
4/29 8:40pm 157 1 G 3 61° 36% - - 33° 85.8° 49.6° - - -
4/29 8:30pm 151 1 G 3 62° 33% - - 33° 85.8° 49.6° - - -
4/29 8:20pm 99 1 G 3 63° 31% - - 32° 85.8° 49.6° - - -
4/29 8:10pm 155 2 G 3 64° 30% - - 32° 85.8° 49.6° - - -
4/29 8:00pm 171 2 G 3 65° 30% - - 33° 85.8° 49.6° - - -
4/29 7:50pm 72 2 G 4 67° 29% - - 34° 85.8° 49.6° - - -
4/29 7:40pm 119 2 G 3 68° 25% - - 31° 85.8° 49.6° - - -
4/29 7:30pm 218 1 G 3 71° 22% - - 30° 85.8° 49.6° - - -
4/29 7:20pm 240 1 G 3 73° 20% - - 29° 85.8° 49.6° - - -
4/29 7:10pm 240 1 G 1 74° 19% - - 29° 85.8° 49.6° - - -
4/29 7:00pm 243 3 G 3 75° 18% - - 28° 85.8° 49.6° - - -
4/29 6:50pm 233 5 G 8 75° 17% - - 27° 85.8° 49.6° - - -
4/29 6:40pm 258 5 G 9 75° 16% - - 26° 85.8° 49.6° - - -
4/29 6:30pm 271 6 G 8 76° 15% - - 24° 85.8° 49.6° - - -
4/29 6:20pm 265 7 G 11 76° 14% - - 23° 85.8° 49.6° - - -
4/29 6:10pm 285 7 G 11 76° 14% - - 23° 85.8° 49.6° - - -
4/29 6:00pm 273 8 G 13 76° 14% - - 24° 85.8° 49.6° - - -
4/29 5:50pm 281 9 G 14 77° 14% - - 23° 85.8° 49.6° - - -
4/29 5:40pm 265 9 G 14 77° 14% - - 24° 85.8° 49.6° - - -
4/29 5:30pm 258 9 G 14 78° 14% - - 24° 85.8° 49.6° - - -
4/29 5:20pm 258 10 G 14 78° 14% - - 25° 85.8° 49.6° - - -
4/29 5:10pm 262 9 G 13 79° 13% - - 24° 85.8° 49.6° - - -
4/29 5:00pm 255 10 G 14 79° 13% - - 24° 85.8° 49.6° - - -
4/29 4:50pm 260 9 G 14 79° 13% - - 24° 85.8° 49.6° - - -
4/29 4:40pm 262 10 G 15 80° 13% - - 24° 85.8° 49.6° - - -
4/29 4:30pm 268 11 G 17 80° 12% - - 23° 85.8° 49.6° - - -
4/29 4:20pm 263 11 G 17 80° 12% - - 23° 85.8° 49.6° - - -
4/29 4:10pm 258 11 G 17 80° 11% - - 22° 85.8° 49.6° - - -
4/29 4:00pm 262 12 G 18 81° 11% - - 21° 85.8° 49.6° - - -
4/29 3:50pm 255 13 G 19 81° 11% - - 21° 85.8° 49.6° - - -
4/29 3:40pm 247 14 G 20 81° 11% - - 21° 85.8° 49.6° - - -
4/29 3:30pm 250 12 G 21 81° 11% - - 21° 85.8° 49.6° - - -
4/29 3:20pm 256 8 G 19 83° 10% - - 22° 85.8° 49.6° - - -
4/29 3:10pm 259 8 G 18 84° 10% - - 20° 85.8° 49.6° - - -
4/29 3:00pm 255 9 G 13 83° 9% - - 19° 85.8° 49.6° - - -
4/29 2:50pm 253 8 G 18 83° 9% - - 19° 85.8° 49.6° - - -
4/29 2:40pm 255 4 G 17 84° 9% - - 18° 85.8° 49.6° - - -
4/29 2:30pm 210 4 G 8 85° 6% - - 11° 85.8° 49.6° - - -
4/29 2:20pm 149 5 G 9 84° 6% - - 11° 84.9° 49.6° - - -
4/29 2:10pm 236 7 G 16 83° 7% - - 12° 84.9° 49.6° - - -
4/29 2:00pm 237 7 G 13 83° 7% - - 13° 84.9° 49.6° - - -
4/29 1:50pm 309 5 G 12 83° 7% - - 12° 84.9° 49.6° - - -
4/29 1:40pm 302 5 G 12 84° 7% - - 12° 84.9° 49.6° - - -
4/29 1:30pm 209 5 G 11 84° 6% - - 10° 84.4° 49.6° - - -
4/29 1:20pm 166 5 G 11 83° 6% - - 84.2° 49.6° - - -
4/29 1:10pm 188 4 G 10 83° 6% - - 84.1° 49.6° - - -
4/29 1:00pm 223 4 G 10 82° 6% - - 83.4° 49.6° - - -
4/29 12:50pm 240 5 G 10 82° 6% - - 83.4° 49.6° - - -
4/29 12:40pm 175 5 G 10 83° 6% - - 10° 83.4° 49.6° - - -
4/29 12:30pm 238 5 G 10 81° 7% - - 10° 81.8° 49.6° - - -
4/29 12:20pm 226 5 G 10 81° 7% - - 10° 81.5° 49.6° - - -
4/29 12:10pm 257 3 G 9 80° 7% - - 10° 81.5° 49.6° - - -
4/29 12:00pm 251 5 G 9 80° 7% - - 10° 81.5° 49.6° - - -
4/29 11:50am 285 5 G 11 80° 7% - - 11° 81.5° 49.6° - - -
4/29 11:40am 255 4 G 10 80° 8% - - 12° 81.5° 49.6° - - -
4/29 11:30am 257 2 G 9 79° 8% - - 12° 80.7° 49.6° - - -
4/29 11:20am 219 2 G 7 80° 8% - - 13° 80.7° 49.6° - - -
4/29 11:10am 182 4 G 6 78° 8% - - 13° 79.6° 49.6° - - -
4/29 11:00am 254 3 G 8 78° 8% - - 13° 79.6° 49.6° - - -
4/29 10:50am 178 3 G 7 79° 8% - - 14° 79.6° 49.6° - - -
4/29 10:40am 209 4 G 9 77° 9% - - 14° 78.6° 49.6° - - -
4/29 10:30am 237 4 G 9 77° 9% - - 13° 77.9° 49.6° - - -
4/29 10:20am 256 3 G 9 76° 9% - - 12° 77.4° 49.6° - - -
4/29 10:10am 306 5 G 9 76° 9% - - 12° 76.9° 49.6° - - -
4/29 10:00am 333 5 G 9 75° 9% - - 12° 76.8° 49.6° - - -
4/29 9:50am 305 4 G 8 75° 9% - - 11° 76.8° 49.6° - - -
4/29 9:40am 227 4 G 8 76° 9% - - 12° 76.8° 49.6° - - -
4/29 9:30am 307 2 G 7 75° 9% - - 12° 76.8° 49.6° - - -
4/29 9:20am 327 2 G 5 76° 9% - - 13° 76.8° 49.6° - - -
4/29 9:10am 105 2 G 5 75° 9% - - 12° 75.9° 49.6° - - -
4/29 9:00am 221 2 G 5 73° 10% - - 13° 74.4° 49.6° - - -
4/29 8:50am 239 2 G 7 73° 12% - - 17° 73.9° 49.6° - - -
4/29 8:40am 315 2 G 4 71° 14% - - 20° 71.9° 49.6° - - -
4/29 8:30am 187 2 G 4 70° 15% - - 20° 71° 49.6° - - -
4/29 8:20am 117 3 G 7 68° 16% - - 21° 70.6° 49.6° - - -
4/29 8:10am 98 1 G 6 69° 16% - - 21° 70.6° 49.6° - - -
4/29 8:00am 39 1 G 4 67° 18% - - 22° 70.6° 49.6° - - -
4/29 7:50am 291 4 G 4 66° 19% - - 22° 70.6° 49.6° - - -
4/29 7:40am 108 5 G 9 63° 20% - - 22° 70.6° 49.6° - - -
4/29 7:30am 79 3 G 8 64° 19% - - 21° 70.6° 49.6° - - -
4/29 7:20am 179 3 G 8 63° 18% - - 19° 70.6° 49.6° - - -
4/29 7:10am 215 2 G 9 61° 21% - - 21° 70.6° 49.6° - - -
4/29 7:00am 200 6 G 7 62° 19% - - 18° 70.6° 49.6° - - -
4/29 6:50am 128 3 G 10 60° 19% - - 17° 70.6° 49.6° - - -
4/29 6:40am 111 3 G 8 58° 22% - - 19° 70.6° 49.6° - - -
4/29 6:30am 149 3 G 7 61° 18% - - 16° 70.6° 49.6° - - -
4/29 6:20am 358 3 G 5 61° 17% - - 16° 70.6° 49.6° - - -
4/29 6:10am 224 4 G 8 64° 14% - - 13° 70.6° 49.6° - - -
4/29 6:00am 233 5 G 8 64° 13% - - 13° 70.6° 49.6° - - -
4/29 5:50am 220 5 G 11 66° 12% - - 12° 70.6° 49.6° - - -
4/29 5:40am 196 5 G 10 64° 15% - - 14° 70.6° 49.6° - - -
4/29 5:30am 233 5 G 9 63° 16% - - 16° 70.6° 49.6° - - -
4/29 5:20am 198 4 G 7 64° 14% - - 15° 70.6° 49.6° - - -
4/29 5:10am 224 4 G 9 63° 15% - - 15° 70.6° 49.6° - - -
4/29 5:00am 193 5 G 8 66° 14% - - 15° 70.6° 49.6° - - -
4/29 4:50am 230 3 G 11 62° 17% - - 17° 70.6° 49.6° - - -
4/29 4:40am 298 3 G 7 64° 16% - - 17° 70.6° 49.6° - - -
4/29 4:30am 253 5 G 8 66° 14% - - 16° 70.6° 49.6° - - -
4/29 4:20am 57 5 G 11 67° 14% - - 15° 70.6° 49.6° - - -
4/29 4:10am 323 4 G 14 67° 13% - - 15° 70.6° 49.6° - - -
4/29 4:00am 135 9 G 10 69° 12% - - 14° 70.6° 49.6° - - -
4/29 3:50am 91 11 G 21 70° 11% - - 13° 70.6° 49.6° - - -
4/29 3:40am 90 6 G 19 68° 13% - - 16° 70.4° 49.6° - - -
4/29 3:30am 92 9 G 16 64° 19% - - 20° 70.4° 49.6° - - -
4/29 3:20am 83 9 G 20 68° 15% - - 18° 70.4° 49.6° - - -
4/29 3:10am 57 9 G 14 68° 15% - - 19° 69.3° 49.6° - - -
4/29 3:00am 104 7 G 15 63° 24% - - 25° 67.7° 49.6° - - -
4/29 2:50am 126 4 G 13 63° 25% - - 26° 66.5° 49.6° - - -
4/29 2:40am 288 7 G 9 58° 38% - - 32° 66.5° 49.6° - - -
4/29 2:30am 89 4 G 14 61° 34% - - 31° 66.5° 49.6° - - -
4/29 2:20am 178 4 G 10 55° 54% - - 39° 57.4° 49.6° - - -
4/29 2:10am 174 3 G 11 53° 65% - - 41° 54.7° 49.6° - - -
4/29 2:00am 141 3 G 6 52° 71% - - 43° 53.6° 49.6° - - -
4/29 1:50am 201 4 G 7 51° 73% - - 43° 53.6° 49.6° - - -
4/29 1:40am 149 4 G 8 52° 72% - - 43° 53.6° 49.6° - - -
4/29 1:30am 79 3 G 6 51° 74% - - 43° 53.6° 49.6° - - -
4/29 1:20am 266 4 G 7 51° 75% - - 43° 53° 49.6° - - -
4/29 1:10am 25 4 G 10 51° 74% - - 43° 53° 49.6° - - -
4/29 1:00am 233 3 G 7 51° 75% - - 43° 53° 49.6° - - -
4/29 12:50am 157 3 G 6 51° 74% - - 43° 53° 50° - - -
4/29 12:40am 212 3 G 6 51° 72% - - 43° 53° 50° - - -
4/29 12:30am 327 2 G 6 51° 73% - - 43° 53° 50° - - -
4/29 12:20am 306 2 G 4 52° 73% - - 43° 52.8° 50.4° - - -
4/29 12:10am 215 2 G 8 51° 74% - - 43° 52.3° 50.4° - - -
4/29 12:00am 190 2 G 4 52° 72% - - 44° 78.9° 46.2° - - -
4/28 11:50pm 62 1 G 7 52° 72% - - 44° 78.9° 46.2° - - -
4/28 11:40pm 150 1 G 2 53° 71% - - 43° 78.9° 46.2° - - -
4/28 11:30pm 276 3 G 6 53° 70% - - 43° 78.9° 46.2° - - -
4/28 11:20pm 232 3 G 7 53° 71% - - 44° 78.9° 46.2° - - -
4/28 11:10pm 66 1 G 5 53° 70% - - 44° 78.9° 46.2° - - -
4/28 11:00pm 162 1 G 2 54° 67% - - 43° 78.9° 46.2° - - -
4/28 10:50pm 330 1 G 2 54° 67% - - 43° 78.9° 46.2° - - -
4/28 10:40pm 319 1 G 3 54° 66% - - 43° 78.9° 46.2° - - -
4/28 10:30pm 192 0 G 2 55° 65% - - 44° 78.9° 46.2° - - -
4/28 10:20pm 79 1 G 2 57° 62% - - 44° 78.9° 46.2° - - -
4/28 10:10pm 104 0 G 5 56° 63% - - 44° 78.9° 46.2° - - -
4/28 10:00pm 314 0 G 2 56° 58% - - 42° 78.9° 46.2° - - -
4/28 9:50pm 307 1 G 2 57° 58% - - 42° 78.9° 46.2° - - -
4/28 9:40pm 266 1 G 3 58° 55% - - 42° 78.9° 46.2° - - -
4/28 9:30pm 241 0 G 2 58° 57% - - 43° 78.9° 46.2° - - -
4/28 9:20pm 243 0 G 1 59° 59% - - 45° 78.9° 46.2° - - -
4/28 9:10pm 33 0 G 2 60° 58% - - 45° 78.9° 46.2° - - -
4/28 9:00pm 330 0 G 1 60° 54% - - 44° 78.9° 46.2° - - -
4/28 8:50pm 139 1 G 2 61° 52% - - 44° 78.9° 46.2° - - -
4/28 8:40pm 96 2 G 4 62° 54% - - 46° 78.9° 46.2° - - -
4/28 8:30pm 65 3 G 4 64° 50% - - 45° 78.9° 46.2° - - -
4/28 8:20pm 19 2 G 5 64° 46% - - 43° 78.9° 46.2° - - -
4/28 8:10pm 147 2 G 4 65° 44% - - 42° 78.9° 46.2° - - -
4/28 8:00pm 171 3 G 4 66° 41% - - 42° 78.9° 46.2° - - -
4/28 7:50pm 99 2 G 4 67° 42% - - 43° 78.9° 46.2° - - -
4/28 7:40pm 28 1 G 3 67° 38% - - 41° 78.9° 46.2° - - -
4/28 7:30pm 230 2 G 3 68° 38% - - 41° 78.9° 46.2° - - -
4/28 7:20pm 269 4 G 6 68° 37% - - 41° 78.9° 46.2° - - -
4/28 7:10pm 272 5 G 7 69° 37% - - 41° 78.9° 46.2° - - -
4/28 7:00pm 261 5 G 8 69° 35% - - 41° 78.9° 46.2° - - -
4/28 6:50pm 275 5 G 8 70° 34% - - 41° 78.9° 46.2° - - -
4/28 6:40pm 272 5 G 7 71° 33% - - 41° 78.9° 46.2° - - -
4/28 6:30pm 262 5 G 7 72° 32% - - 41° 78.9° 46.2° - - -
4/28 6:20pm 252 5 G 8 72° 32% - - 40° 78.9° 46.2° - - -
4/28 6:10pm 242 5 G 8 73° 31% - - 41° 78.9° 46.2° - - -
4/28 6:00pm 251 6 G 9 73° 31% - - 40° 78.9° 46.2° - - -